Time;durP1;ratioP1;P1;durP2;ratioP2;P2;SDS_P1;SDS_P2;PMS_P1;PMS_P2;Temp;Humidity;BMP_temperature;BMP_pressure;BME280_temperature;BME280_humidity;BME280_pressure;Samples;Min_cycle;Max_cycle;Signal;HPM_P1;HPM_P2
2022/05/14 00:00:40;;;;;;;20.20;11.00;;;;;;;15.57;100.00;97250.22;5032385;28;20037;-79
2022/05/14 00:03:06;;;;;;;19.63;11.35;;;;;;;15.45;100.00;97253.94;5032237;28;20025;-78
2022/05/14 00:05:32;;;;;;;16.38;11.27;;;;;;;15.41;100.00;97254.38;5032369;28;20473;-79
2022/05/14 00:07:58;;;;;;;24.17;9.57;;;;;;;15.30;100.00;97247.19;5032084;28;20033;-78
2022/05/14 00:10:26;;;;;;;16.08;9.27;;;;;;;15.27;100.00;97250.16;5032200;28;20037;-80
2022/05/14 00:13:04;;;;;;;17.05;9.05;;;;;;;15.15;100.00;97238.59;5032072;28;20033;-79
2022/05/14 00:15:35;;;;;;;15.30;10.15;;;;;;;15.13;100.00;97239.69;5017487;28;20544;-79
2022/05/14 00:18:02;;;;;;;20.65;9.50;;;;;;;15.16;100.00;97239.44;5031917;28;20116;-79
2022/05/14 00:20:28;;;;;;;23.17;9.65;;;;;;;15.03;100.00;97228.84;5032087;28;20037;-80
2022/05/14 00:22:54;;;;;;;16.30;9.02;;;;;;;15.03;100.00;97239.63;5015374;28;20060;-79
2022/05/14 00:25:21;;;;;;;13.70;9.35;;;;;;;15.03;100.00;97242.31;5031386;28;20462;-79
2022/05/14 00:27:46;;;;;;;13.07;9.15;;;;;;;14.94;100.00;97226.94;5031964;28;20025;-79
2022/05/14 00:30:14;;;;;;;16.95;9.55;;;;;;;14.85;100.00;97229.53;5031605;28;20544;-79
2022/05/14 00:32:42;;;;;;;12.70;9.13;;;;;;;14.79;100.00;97220.16;5015145;28;20033;-79
2022/05/14 00:35:09;;;;;;;14.75;8.85;;;;;;;14.86;100.00;97220.50;5031465;28;20121;-80
2022/05/14 00:37:35;;;;;;;13.82;9.02;;;;;;;14.78;100.00;97222.97;5031705;28;20080;-79
2022/05/14 00:40:03;;;;;;;13.48;8.85;;;;;;;14.79;100.00;97222.00;5031555;28;20115;-79
2022/05/14 00:42:31;;;;;;;14.38;8.82;;;;;;;14.69;100.00;97219.22;5031574;28;20506;-80
2022/05/14 00:44:57;;;;;;;21.17;9.80;;;;;;;14.69;100.00;97215.66;5015306;28;20029;-80
2022/05/14 00:47:23;;;;;;;12.55;8.82;;;;;;;14.71;100.00;97227.13;5031149;28;20036;-80
2022/05/14 00:49:48;;;;;;;12.63;8.75;;;;;;;14.63;100.00;97219.72;5031685;28;20029;-79
2022/05/14 00:52:17;;;;;;;14.15;9.18;;;;;;;14.57;100.00;97231.84;5031251;28;20048;-80
2022/05/14 00:55:01;;;;;;;13.65;9.32;;;;;;;14.60;100.00;97228.06;5031551;28;20022;-79
2022/05/14 00:57:31;;;;;;;13.25;8.52;;;;;;;14.61;100.00;97233.28;5015287;28;20111;-79
2022/05/14 00:59:58;;;;;;;12.68;9.23;;;;;;;14.57;100.00;97225.63;5031180;28;20025;-79
2022/05/14 01:02:24;;;;;;;14.45;9.27;;;;;;;14.60;100.00;97231.59;5030890;28;20102;-79
2022/05/14 01:04:49;;;;;;;16.08;8.75;;;;;;;14.61;100.00;97227.09;5032818;28;20504;-80
2022/05/14 01:07:18;;;;;;;12.13;8.48;;;;;;;14.65;100.00;97237.44;5014510;28;20025;-79
2022/05/14 01:09:49;;;;;;;9.43;7.80;;;;;;;14.61;100.00;97232.47;5031404;28;20021;-80
2022/05/14 01:12:16;;;;;;;17.23;9.02;;;;;;;14.56;100.00;97226.59;5030866;28;20138;-79
2022/05/14 01:14:43;;;;;;;12.60;8.65;;;;;;;14.59;100.00;97229.03;5030925;28;20028;-80
2022/05/14 01:17:09;;;;;;;12.70;8.45;;;;;;;14.67;100.00;97229.25;5014566;28;20033;-79
2022/05/14 01:19:35;;;;;;;13.40;8.05;;;;;;;14.60;100.00;97220.84;5030894;28;20116;-80
2022/05/14 01:22:28;;;;;;;14.73;8.55;;;;;;;14.56;100.00;97226.59;5030840;28;20456;-80
2022/05/14 01:28:18;;;;;;;14.13;8.20;;;;;;;14.57;100.00;97213.03;5008985;28;20048;-79
2022/05/14 01:31:04;;;;;;;14.48;8.40;;;;;;;14.60;100.00;97228.91;5030672;28;20045;-79
2022/05/14 01:33:31;;;;;;;14.35;8.32;;;;;;;14.59;100.00;97219.13;5029768;28;20115;-79
2022/05/14 01:35:57;;;;;;;12.02;8.45;;;;;;;14.56;100.00;97223.91;5014242;28;20033;-79
2022/05/14 01:38:24;;;;;;;11.32;7.85;;;;;;;14.58;100.00;97222.78;5029832;28;20029;-79
2022/05/14 01:40:49;;;;;;;9.60;8.60;;;;;;;14.50;100.00;97210.94;5030523;28;20087;-79
2022/05/14 01:43:15;;;;;;;19.92;8.55;;;;;;;14.51;100.00;97208.16;5014041;28;20472;-79
2022/05/14 01:45:41;;;;;;;13.52;8.80;;;;;;;14.35;100.00;97205.00;5030369;28;20037;-80
2022/05/14 01:48:07;;;;;;;13.25;8.88;;;;;;;14.39;100.00;97195.72;5027560;28;20444;-79
2022/05/14 01:50:33;;;;;;;18.02;8.60;;;;;;;14.35;100.00;97201.47;5013866;28;20032;-80
2022/05/14 01:52:59;;;;;;;13.32;8.57;;;;;;;14.28;100.00;97186.75;5030348;28;20025;-80
2022/05/14 01:55:25;;;;;;;11.90;9.00;;;;;;;14.25;100.00;97204.00;5030071;28;20032;-80
2022/05/14 01:57:50;;;;;;;13.50;9.00;;;;;;;14.08;100.00;97199.16;5030213;28;20029;-80
2022/05/14 02:00:17;;;;;;;14.27;9.48;;;;;;;14.04;100.00;97213.84;5013400;28;20048;-80
2022/05/14 02:02:43;;;;;;;16.60;9.77;;;;;;;13.93;100.00;97197.72;5030173;28;20446;-80
2022/05/14 02:05:08;;;;;;;20.30;11.20;;;;;;;13.90;100.00;97211.41;5029776;28;20025;-80
2022/05/14 02:07:34;;;;;;;18.65;11.07;;;;;;;13.87;100.00;97208.97;5029963;28;20036;-80
2022/05/14 02:10:00;;;;;;;18.45;12.10;;;;;;;13.84;100.00;97203.84;5030000;28;20088;-80
2022/05/14 02:12:25;;;;;;;20.67;12.90;;;;;;;13.76;100.00;97198.22;5030010;28;20446;-80
2022/05/14 02:14:51;;;;;;;16.17;12.10;;;;;;;13.71;100.00;97209.34;5031128;28;20396;-80
2022/05/14 02:17:17;;;;;;;18.95;11.95;;;;;;;13.80;100.00;97207.75;5029712;28;20056;-80
2022/05/14 02:19:42;;;;;;;16.27;10.73;;;;;;;13.74;100.00;97192.13;5030194;28;20032;-80
2022/05/14 02:22:08;;;;;;;14.27;9.40;;;;;;;13.76;100.00;97196.38;5029837;28;20029;-80
2022/05/14 02:24:35;;;;;;;13.88;9.65;;;;;;;13.80;100.00;97202.38;5029826;28;20036;-80
2022/05/14 02:27:00;;;;;;;12.23;8.93;;;;;;;13.66;100.00;97199.94;5029811;28;20032;-80
2022/05/14 02:29:26;;;;;;;13.93;9.32;;;;;;;13.66;100.00;97194.56;5029761;28;20029;-79
2022/05/14 02:31:52;;;;;;;15.07;9.35;;;;;;;13.56;100.00;97206.06;5029561;28;20124;-80
2022/05/14 02:34:18;;;;;;;13.88;9.85;;;;;;;13.58;100.00;97195.19;5029632;28;20029;-79
2022/05/14 02:36:44;;;;;;;23.05;10.80;;;;;;;13.68;100.00;97200.69;5029762;28;20029;-80
2022/05/14 02:39:09;;;;;;;15.48;9.50;;;;;;;13.67;100.00;97201.63;5013124;28;20087;-80
2022/05/14 02:41:35;;;;;;;18.80;11.57;;;;;;;13.64;100.00;97207.25;5029517;28;20322;-80
2022/05/14 02:44:01;;;;;;;16.60;11.15;;;;;;;13.62;100.00;97214.59;5012947;28;20111;-80
2022/05/14 02:46:26;;;;;;;18.23;11.07;;;;;;;13.59;100.00;97210.34;5029448;28;20033;-79
2022/05/14 02:48:52;;;;;;;18.60;11.48;;;;;;;13.63;100.00;97208.25;5031510;28;20024;-80
2022/05/14 02:51:18;;;;;;;24.65;10.52;;;;;;;13.53;100.00;97208.97;5035059;28;20036;-79
2022/05/14 02:53:43;;;;;;;20.27;10.45;;;;;;;13.52;100.00;97209.09;5034898;28;20086;-80
2022/05/14 02:56:09;;;;;;;18.50;10.52;;;;;;;13.53;100.00;97211.66;5033550;28;20086;-80
2022/05/14 03:01:19;;;;;;;26.20;12.43;;;;;;;13.47;100.00;97211.31;5033730;28;20476;-80
2022/05/14 03:03:44;;;;;;;14.07;8.73;;;;;;;13.42;100.00;97206.28;5033508;28;20069;-80
2022/05/14 03:06:10;;;;;;;15.85;8.50;;;;;;;13.45;100.00;97210.53;5033516;28;20021;-80
2022/05/14 03:08:36;;;;;;;11.25;8.40;;;;;;;13.34;100.00;97210.53;5033114;28;20036;-79
2022/05/14 03:11:02;;;;;;;22.70;8.73;;;;;;;13.32;100.00;97212.50;5033476;28;20029;-81
2022/05/14 03:13:27;;;;;;;13.63;9.18;;;;;;;13.31;100.00;97211.66;5033041;28;20040;-80
2022/05/14 03:15:53;;;;;;;13.43;10.45;;;;;;;13.36;100.00;97203.22;5033405;28;20021;-80
2022/05/14 03:18:19;;;;;;;18.05;10.65;;;;;;;13.43;100.00;97205.31;5033159;28;20036;-80
2022/05/14 03:20:45;;;;;;;15.30;9.07;;;;;;;13.47;100.00;97211.31;5034197;28;20037;-80
2022/05/14 03:23:11;;;;;;;13.45;9.68;;;;;;;13.48;100.00;97208.47;5033214;28;20029;-80
2022/05/14 03:25:37;;;;;;;22.38;13.63;;;;;;;13.56;100.00;97219.50;5032839;28;20099;-79
2022/05/14 03:28:03;;;;;;;19.30;11.73;;;;;;;13.62;100.00;97230.72;5016578;28;20025;-79
2022/05/14 03:30:28;;;;;;;24.65;12.27;;;;;;;13.61;100.00;97213.75;5016369;28;20049;-80
2022/05/14 03:32:54;;;;;;;16.85;10.80;;;;;;;13.60;100.00;97219.25;5032966;28;20017;-80
2022/05/14 03:35:20;;;;;;;20.58;10.70;;;;;;;13.68;100.00;97217.66;5032936;28;20100;-80
2022/05/14 03:37:45;;;;;;;18.50;10.70;;;;;;;13.72;100.00;97216.41;5032720;28;20037;-80
2022/05/14 03:40:12;;;;;;;19.98;10.50;;;;;;;13.71;100.00;97219.25;5016150;28;20022;-79
2022/05/14 03:42:37;;;;;;;18.30;9.70;;;;;;;13.72;100.00;97220.97;5032493;28;20483;-80
2022/05/14 03:45:03;;;;;;;19.52;9.80;;;;;;;13.68;100.00;97224.88;5032840;28;20025;-80
2022/05/14 03:47:29;;;;;;;23.20;10.50;;;;;;;13.84;100.00;97233.44;5015896;28;20481;-79
2022/05/14 03:49:55;;;;;;;15.73;9.43;;;;;;;13.84;100.00;97233.44;5032860;28;20036;-79
2022/05/14 03:52:20;;;;;;;21.02;9.27;;;;;;;13.86;100.00;97234.16;5032673;28;20103;-79
2022/05/14 03:54:46;;;;;;;13.00;8.95;;;;;;;13.86;100.00;97232.31;5032819;28;20021;-79
2022/05/14 03:57:12;;;;;;;12.23;9.50;;;;;;;13.98;100.00;97238.53;5033619;28;20025;-80
2022/05/14 03:59:38;;;;;;;20.70;9.63;;;;;;;14.08;100.00;97239.50;5033235;28;20018;-79
2022/05/14 04:02:04;;;;;;;23.60;10.35;;;;;;;14.22;100.00;97247.31;5032338;28;20021;-79
2022/05/14 04:04:33;;;;;;;16.02;10.38;;;;;;;14.33;100.00;97250.03;5032540;28;20029;-80
2022/05/14 04:07:00;;;;;;;26.55;9.18;;;;;;;14.36;100.00;97257.84;5033022;28;20117;-80
2022/05/14 04:09:26;;;;;;;20.45;10.10;;;;;;;14.49;100.00;97255.84;5032240;28;20436;-79
2022/05/14 04:11:52;;;;;;;19.00;10.88;;;;;;;14.52;100.00;97260.97;5032195;28;20511;-80
2022/05/14 04:14:18;;;;;;;17.23;9.90;;;;;;;14.61;100.00;97262.91;5032264;28;20022;-80
2022/05/14 04:16:43;;;;;;;17.25;9.00;;;;;;;14.70;100.00;97268.53;5031972;28;20095;-80
2022/05/14 04:19:09;;;;;;;18.38;9.52;;;;;;;14.74;100.00;97265.44;5032161;28;20037;-80
2022/05/14 04:21:36;;;;;;;12.88;9.07;;;;;;;14.74;100.00;97259.19;5015703;28;20737;-80
2022/05/14 04:24:02;;;;;;;17.17;9.63;;;;;;;14.83;100.00;97274.59;5015697;28;20489;-80
2022/05/14 04:26:27;;;;;;;20.27;9.75;;;;;;;14.80;100.00;97267.63;5015334;28;20102;-80
2022/05/14 04:28:53;;;;;;;16.17;9.30;;;;;;;14.84;100.00;97279.00;5031702;28;20500;-80
2022/05/14 04:31:21;;;;;;;15.10;9.88;;;;;;;14.98;99.54;97284.09;5031755;28;20065;-80
2022/05/14 04:33:47;;;;;;;20.05;9.52;;;;;;;15.00;99.45;97284.81;5015437;28;20404;-79
2022/05/14 04:36:13;;;;;;;16.67;9.32;;;;;;;14.99;99.40;97281.25;5026608;28;20041;-79
2022/05/14 04:38:38;;;;;;;17.90;9.98;;;;;;;15.04;99.48;97292.50;5015457;28;21112;-80
2022/05/14 04:41:04;;;;;;;16.02;9.13;;;;;;;15.04;99.15;97288.97;5023100;28;20025;-80
2022/05/14 04:43:31;;;;;;;15.82;10.60;;;;;;;15.15;98.63;97286.22;5031724;28;20436;-80
2022/05/14 04:45:56;;;;;;;16.27;10.15;;;;;;;15.13;99.59;97305.19;5031463;28;20518;-80
2022/05/14 04:48:22;;;;;;;22.92;10.45;;;;;;;15.12;100.00;97302.66;5031711;28;20029;-80
2022/05/14 04:50:48;;;;;;;25.40;11.70;;;;;;;15.15;100.00;97310.47;5031518;28;20460;-80
2022/05/14 04:53:14;;;;;;;18.20;10.27;;;;;;;15.22;100.00;97311.66;5031751;28;20055;-81
2022/05/14 04:55:39;;;;;;;17.45;11.00;;;;;;;15.27;100.00;97316.66;5031670;28;20052;-80
2022/05/14 04:58:08;;;;;;;26.20;11.18;;;;;;;15.23;100.00;97316.06;5031317;28;20021;-78
2022/05/14 05:00:36;;;;;;;18.77;11.15;;;;;;;15.40;100.00;97311.94;5015837;28;20029;-81
2022/05/14 05:03:19;;;;;;;18.15;10.68;;;;;;;15.48;99.84;97304.94;5031578;28;20025;-79
2022/05/14 05:05:47;;;;;;;25.40;11.40;;;;;;;15.67;98.95;97323.09;5031796;28;20104;-80
2022/05/14 05:08:13;;;;;;;19.35;11.07;;;;;;;15.81;98.18;97322.75;5014628;28;20471;-80
2022/05/14 05:10:38;;;;;;;25.75;12.25;;;;;;;15.89;97.19;97319.41;5014944;28;20025;-81
2022/05/14 05:13:08;;;;;;;19.80;11.82;;;;;;;15.87;97.31;97322.25;5015784;28;20021;-81
2022/05/14 05:15:34;;;;;;;19.60;12.38;;;;;;;15.94;95.23;97330.63;5031996;28;20084;-81
2022/05/14 05:17:59;;;;;;;20.95;13.00;;;;;;;16.02;95.09;97333.53;5031389;28;20061;-80
2022/05/14 05:20:25;;;;;;;20.95;13.52;;;;;;;15.98;94.81;97332.09;5031264;28;20072;-80
2022/05/14 05:22:51;;;;;;;25.52;15.25;;;;;;;16.08;94.76;97324.91;5031093;28;20538;-79
2022/05/14 05:25:17;;;;;;;24.50;14.77;;;;;;;16.23;94.57;97334.34;5030653;28;20037;-78
2022/05/14 05:27:42;;;;;;;34.28;15.60;;;;;;;16.41;93.92;97338.13;5014500;28;20472;-79
2022/05/14 05:30:08;;;;;;;43.50;15.43;;;;;;;16.53;90.91;97339.72;5013958;28;20049;-80
2022/05/14 05:32:34;;;;;;;46.97;16.67;;;;;;;16.37;90.84;97331.28;5030698;28;20026;-80
2022/05/14 05:34:59;;;;;;;57.33;16.75;;;;;;;16.22;91.08;97338.03;5030407;28;20017;-79
2022/05/14 05:37:25;;;;;;;56.55;18.52;;;;;;;16.23;90.88;97335.22;5030653;28;20029;-80
2022/05/14 05:39:51;;;;;;;56.72;16.33;;;;;;;16.20;91.63;97340.88;5030605;28;20377;-79
2022/05/14 05:42:16;;;;;;;34.95;14.93;;;;;;;16.22;91.85;97346.13;5032327;28;20045;-80
2022/05/14 05:44:42;;;;;;;33.97;15.52;;;;;;;16.17;92.28;97351.94;5030925;28;20040;-80
2022/05/14 05:47:08;;;;;;;26.63;15.70;;;;;;;16.02;93.00;97364.06;5031938;28;20110;-84
2022/05/14 05:49:35;;;;;;;24.75;14.70;;;;;;;15.91;93.64;97372.22;5031194;28;20120;-81
2022/05/14 05:52:00;;;;;;;24.63;13.77;;;;;;;15.92;93.24;97365.84;5014815;28;20032;-81
2022/05/14 05:57:10;;;;;;;22.00;13.65;;;;;;;16.47;91.02;97369.13;5032209;28;20087;-83
2022/05/14 05:59:36;;;;;;;24.98;13.63;;;;;;;16.80;87.21;97374.25;5031591;28;20033;-80
2022/05/14 06:02:02;;;;;;;32.63;13.93;;;;;;;17.04;85.56;97371.19;5030964;28;20035;-80
2022/05/14 06:04:27;;;;;;;27.23;14.82;;;;;;;17.29;84.30;97374.19;5030394;28;20037;-81
2022/05/14 06:06:53;;;;;;;26.40;14.23;;;;;;;17.56;82.24;97378.13;5030657;28;20025;-82
2022/05/14 06:09:22;;;;;;;32.20;15.88;;;;;;;17.75;81.26;97383.50;5012698;28;20116;-80
2022/05/14 06:11:47;;;;;;;25.42;14.00;;;;;;;18.52;77.12;97370.69;5031416;28;20115;-83
2022/05/14 06:14:13;;;;;;;31.90;16.70;;;;;;;20.14;69.18;97372.44;5026754;28;20108;-81
2022/05/14 06:16:40;;;;;;;26.95;15.18;;;;;;;21.30;63.97;97384.50;5027967;28;20053;-81
2022/05/14 06:19:06;;;;;;;32.58;14.38;;;;;;;21.83;60.90;97370.47;5027485;28;20029;-81
2022/05/14 06:21:33;;;;;;;24.00;12.98;;;;;;;21.53;61.02;97382.84;5028007;28;20702;-82
2022/05/14 06:23:59;;;;;;;20.85;12.38;;;;;;;20.75;63.96;97389.50;5010505;28;20037;-80
2022/05/14 06:26:24;;;;;;;42.58;21.98;;;;;;;20.87;64.09;97398.22;5010888;28;20060;-81
2022/05/14 06:28:50;;;;;;;27.40;13.48;;;;;;;20.64;64.75;97395.22;5011529;28;20033;-81
2022/05/14 06:31:17;;;;;;;24.60;14.90;;;;;;;20.88;64.04;97391.78;5010905;28;20057;-80
2022/05/14 06:33:47;;;;;;;26.98;14.00;;;;;;;22.49;58.73;97383.91;5027758;28;20034;-75
2022/05/14 06:36:13;;;;;;;19.23;12.70;;;;;;;24.21;52.73;97370.97;5029631;28;20068;-83
2022/05/14 06:38:39;;;;;;;31.08;12.02;;;;;;;25.93;47.74;97363.28;5028928;28;20121;-83
2022/05/14 06:41:07;;;;;;;27.02;12.18;;;;;;;26.85;45.83;97356.72;5029001;28;20127;-83
2022/05/14 06:43:33;;;;;;;23.98;12.98;;;;;;;27.44;44.65;97355.16;5029548;28;20029;-80
2022/05/14 06:45:58;;;;;;;25.67;12.93;;;;;;;26.60;44.83;97344.50;5028754;28;20087;-82
2022/05/14 06:48:24;;;;;;;26.10;11.73;;;;;;;26.68;44.95;97360.78;5028230;28;20564;-84
2022/05/14 06:50:50;;;;;;;17.95;9.50;;;;;;;26.26;44.59;97359.84;5030420;28;20049;-86
2022/05/14 06:53:18;;;;;;;16.40;9.90;;;;;;;26.47;44.52;97352.63;5013091;28;20039;-84
2022/05/14 06:55:44;;;;;;;15.65;9.40;;;;;;;26.93;42.91;97354.66;5012424;28;20044;-83
2022/05/14 06:58:13;;;;;;;16.20;9.30;;;;;;;25.91;45.07;97352.50;5029891;28;20401;-83
2022/05/14 07:00:39;;;;;;;16.85;9.88;;;;;;;25.15;47.61;97362.13;5028903;28;20087;-84
2022/05/14 07:08:33;;;;;;;16.25;9.43;;;;;;;24.58;49.26;97369.28;5029565;28;20100;-83
2022/05/14 07:10:59;;;;;;;21.10;12.30;;;;;;;24.85;49.65;97374.16;5028346;28;20501;-84
2022/05/14 07:13:25;;;;;;;27.67;14.77;;;;;;;24.60;50.21;97380.88;5027533;28;20047;-78
2022/05/14 07:15:50;;;;;;;32.67;14.38;;;;;;;24.17;51.12;97388.81;5028554;28;20026;-79
2022/05/14 07:18:16;;;;;;;36.17;13.00;;;;;;;24.45;50.68;97394.53;5029308;28;20037;-80
2022/05/14 07:20:41;;;;;;;32.47;14.65;;;;;;;24.42;50.92;97391.31;5028935;28;20029;-81
2022/05/14 07:23:07;;;;;;;31.48;14.55;;;;;;;24.28;51.27;97391.09;5029473;28;20458;-81
2022/05/14 07:25:32;;;;;;;34.70;13.35;;;;;;;23.94;52.41;97401.56;5028602;28;20045;-84
2022/05/14 07:27:58;;;;;;;24.75;13.23;;;;;;;24.10;52.34;97392.41;5030421;28;20025;-84
2022/05/14 07:30:24;;;;;;;30.77;13.02;;;;;;;24.42;51.38;97400.38;5025654;28;20056;-79
2022/05/14 07:32:51;;;;;;;30.55;13.73;;;;;;;25.50;49.49;97393.34;5027084;28;20036;-80
2022/05/14 07:35:17;;;;;;;37.50;13.82;;;;;;;28.51;43.18;97371.69;5029692;28;20516;-80
2022/05/14 07:37:46;;;;;;;22.85;11.15;;;;;;;30.08;39.47;97364.91;5032070;28;20040;-79
2022/05/14 07:40:15;;;;;;;18.88;11.40;;;;;;;30.69;37.62;97358.72;5032466;28;20030;-79
2022/05/14 07:42:57;;;;;;;26.27;15.00;;;;;;;29.64;39.37;97364.91;5032321;28;20425;-79
2022/05/14 07:45:27;;;;;;;29.15;16.33;;;;;;;29.18;40.62;97370.56;5024352;28;20025;-80
2022/05/14 07:47:53;;;;;;;22.35;14.02;;;;;;;28.13;41.84;97376.94;5012938;28;20112;-79
2022/05/14 07:50:19;;;;;;;20.92;12.85;;;;;;;27.30;44.52;97383.59;5016133;28;20033;-79
2022/05/14 07:52:45;;;;;;;22.77;12.07;;;;;;;27.17;44.78;97385.41;5033476;28;20024;-79
2022/05/14 07:55:10;;;;;;;22.00;11.60;;;;;;;26.73;45.67;97380.28;5032522;28;20499;-79
2022/05/14 07:57:36;;;;;;;24.23;13.43;;;;;;;26.11;47.33;97389.22;5015390;28;20082;-78
2022/05/14 08:00:04;;;;;;;25.05;12.48;;;;;;;25.58;49.22;97397.88;5033531;28;20029;-78
2022/05/14 08:02:31;;;;;;;22.40;12.60;;;;;;;24.74;50.58;97391.84;5032665;28;20100;-78
2022/05/14 08:05:04;;;;;;;19.40;10.98;;;;;;;24.67;52.42;97390.03;5032523;28;20473;-79
2022/05/14 08:07:31;;;;;;;19.33;11.13;;;;;;;24.58;52.63;97402.09;5032622;28;20041;-78
2022/05/14 08:09:56;;;;;;;25.35;12.57;;;;;;;23.66;55.34;97414.06;5031834;28;20029;-78
2022/05/14 08:12:22;;;;;;;15.60;10.75;;;;;;;23.38;56.64;97418.28;5015662;28;20043;-78
2022/05/14 08:14:47;;;;;;;14.40;9.77;;;;;;;24.28;53.27;97402.03;5033224;28;20045;-78
2022/05/14 08:17:13;;;;;;;15.65;9.80;;;;;;;25.85;49.30;97391.66;5032197;28;20092;-79
2022/05/14 08:19:39;;;;;;;24.33;9.75;;;;;;;25.96;47.85;97393.06;5015896;28;20519;-79
2022/05/14 08:24:50;;;;;;;16.75;8.32;;;;;;;27.24;45.13;97384.41;5029534;28;20125;-79
2022/05/14 08:27:17;;;;;;;15.70;7.97;;;;;;;28.63;42.54;97380.16;5031947;28;20116;-80
2022/05/14 08:29:45;;;;;;;18.98;8.20;;;;;;;30.68;38.95;97368.06;5031867;28;20481;-79
2022/05/14 08:32:11;;;;;;;11.88;8.30;;;;;;;31.81;37.10;97380.53;5014969;28;20033;-79
2022/05/14 08:34:36;;;;;;;16.25;8.23;;;;;;;32.97;35.56;97365.09;5015211;28;20113;-80
2022/05/14 08:37:02;;;;;;;21.88;8.27;;;;;;;34.35;33.44;97365.03;5029722;28;20033;-80
2022/05/14 08:39:28;;;;;;;21.63;8.65;;;;;;;34.34;33.98;97355.00;5047547;28;20029;-80
2022/05/14 08:41:54;;;;;;;17.13;8.18;;;;;;;35.49;31.63;97355.25;5015265;28;20401;-79
2022/05/14 08:44:26;;;;;;;21.83;8.07;;;;;;;36.55;30.61;97353.75;5031560;28;20108;-81
2022/05/14 08:46:57;;;;;;;15.27;6.97;;;;;;;36.76;30.02;97357.56;5031221;28;20035;-80
2022/05/14 08:49:35;;;;;;;12.50;7.57;;;;;;;37.05;29.52;97338.56;5031791;28;20052;-81
2022/05/14 08:52:02;;;;;;;17.60;7.35;;;;;;;37.65;29.37;97352.94;5031184;28;20087;-81
2022/05/14 08:54:28;;;;;;;15.90;7.18;;;;;;;38.03;28.80;97359.22;5031408;28;20116;-81
2022/05/14 08:57:04;;;;;;;11.52;7.00;;;;;;;34.37;33.74;97376.72;5014883;28;20063;-80
2022/05/14 08:59:45;;;;;;;8.77;6.72;;;;;;;33.81;35.28;97383.09;5014664;28;20386;-80
2022/05/14 09:02:24;;;;;;;12.93;6.10;;;;;;;35.73;33.04;97378.97;5031010;28;20108;-81
2022/05/14 09:04:56;;;;;;;12.77;5.50;;;;;;;37.46;29.51;97365.66;5030989;28;20030;-80
2022/05/14 09:07:21;;;;;;;10.13;5.45;;;;;;;37.71;28.39;97360.22;5031485;28;20404;-80
2022/05/14 09:09:51;;;;;;;11.88;5.90;;;;;;;36.96;29.86;97360.50;5032953;28;20048;-81
2022/05/14 09:12:21;;;;;;;6.60;5.30;;;;;;;36.67;30.04;97357.19;5031504;28;20059;-80
2022/05/14 09:14:53;;;;;;;7.75;4.97;;;;;;;36.92;27.91;97345.41;5031277;28;20532;-80
2022/05/14 09:17:21;;;;;;;7.47;5.03;;;;;;;37.03;27.87;97338.84;5031072;28;20032;-80
2022/05/14 09:19:50;;;;;;;11.60;5.57;;;;;;;37.21;26.27;97340.34;5031188;28;20037;-77
2022/05/14 09:22:18;;;;;;;8.23;5.70;;;;;;;36.02;28.88;97348.13;5030903;28;20120;-77
2022/05/14 09:24:52;;;;;;;15.68;5.40;;;;;;;36.16;28.94;97350.28;5031058;28;20026;-78
2022/05/14 09:27:44;;;;;;;9.05;5.40;;;;;;;36.12;28.89;97356.63;5028981;28;20496;-77
2022/05/14 09:30:13;;;;;;;8.38;4.68;;;;;;;37.13;27.33;97338.06;5029022;28;20103;-77
2022/05/14 09:32:44;;;;;;;6.63;5.20;;;;;;;38.38;26.78;97340.63;5014979;28;20021;-78
2022/05/14 09:35:22;;;;;;;6.95;5.70;;;;;;;38.90;26.36;97337.59;5027981;28;20017;-80
2022/05/14 09:37:48;;;;;;;12.35;7.68;;;;;;;38.45;27.32;97334.78;5030783;28;20389;-78
2022/05/14 09:40:26;;;;;;;15.50;5.60;;;;;;;38.23;27.53;97342.53;5031015;28;20095;-78
2022/05/14 09:43:08;;;;;;;10.13;5.35;;;;;;;37.46;27.76;97337.75;5031344;28;20485;-78
2022/05/14 09:45:36;;;;;;;7.13;5.45;;;;;;;38.31;26.77;97328.84;5031008;28;20033;-78
2022/05/14 09:48:10;;;;;;;7.97;5.30;;;;;;;36.61;28.48;97346.28;5030431;28;20021;-78
2022/05/14 09:50:35;;;;;;;6.85;4.95;;;;;;;37.80;27.51;97339.03;5030645;28;20056;-78
2022/05/14 09:53:04;;;;;;;5.90;4.45;;;;;;;38.20;26.38;97329.09;5013901;28;20468;-78
2022/05/14 09:55:46;;;;;;;8.63;4.60;;;;;;;38.87;25.66;97328.94;5030561;28;20025;-78
2022/05/14 09:58:31;;;;;;;7.78;4.90;;;;;;;39.23;25.65;97318.53;5007868;28;20029;-78
2022/05/14 10:01:22;;;;;;;13.52;5.25;;;;;;;41.08;23.62;97321.47;5029876;28;20029;-78
2022/05/14 10:03:51;;;;;;;;;;;;;;;42.16;22.98;97317.97;5030435;28;20524;-78
2022/05/14 10:06:45;;;;;;;7.88;4.95;;;;;;;42.16;23.29;97314.31;5046557;28;19920;-79
2022/05/14 10:09:16;;;;;;;8.07;5.63;;;;;;;41.04;23.95;97316.75;5030500;28;20559;-78
2022/05/14 10:11:45;;;;;;;10.00;4.68;;;;;;;38.92;25.75;97318.56;5029804;28;20036;-78
2022/05/14 10:14:28;;;;;;;7.47;4.32;;;;;;;39.31;25.20;97315.19;5029742;28;20043;-79
2022/05/14 10:16:58;;;;;;;11.45;4.40;;;;;;;39.03;25.50;97313.81;5030852;28;20060;-78
2022/05/14 10:19:50;;;;;;;5.45;4.28;;;;;;;40.29;24.30;97321.78;5029587;28;20490;-78
2022/05/14 10:28:49;;;;;;;8.95;5.07;;;;;;;37.70;26.82;97305.44;5031183;28;20466;-78
2022/05/14 10:31:45;;;;;;;9.95;4.30;;;;;;;37.37;27.40;97305.84;5030672;28;20045;-78
2022/05/14 10:34:16;;;;;;;18.20;4.68;;;;;;;36.04;28.84;97320.84;4999472;28;20041;-79
2022/05/14 10:36:48;;;;;;;9.05;4.80;;;;;;;35.63;30.45;97325.09;5029651;28;20481;-79
2022/05/14 10:39:24;;;;;;;6.82;4.53;;;;;;;35.22;30.12;97312.56;5029474;28;20043;-79
2022/05/14 10:42:00;;;;;;;7.45;4.57;;;;;;;36.02;28.89;97320.28;5029284;28;20448;-79
2022/05/14 10:45:03;;;;;;;6.82;4.10;;;;;;;37.22;26.86;97314.13;5029354;28;20026;-78
2022/05/14 10:47:29;;;;;;;5.53;4.30;;;;;;;38.07;25.89;97315.66;4973052;28;20461;-79
2022/05/14 10:50:17;;;;;;;6.63;4.18;;;;;;;39.58;24.97;97310.03;5012406;28;20052;-79
2022/05/14 10:52:44;;;;;;;9.82;4.00;;;;;;;40.40;23.84;97306.56;5029170;28;20030;-79
2022/05/14 10:55:21;;;;;;;6.60;3.55;;;;;;;39.31;23.65;97292.78;5012750;28;20555;-79
2022/05/14 10:57:52;;;;;;;5.30;2.60;;;;;;;38.32;22.67;97273.75;5029076;28;20032;-79
2022/05/14 11:00:24;;;;;;;6.00;2.50;;;;;;;38.04;22.47;97268.69;5029222;28;20029;-79
2022/05/14 11:02:58;;;;;;;8.23;3.50;;;;;;;38.80;22.74;97267.66;5013016;28;20116;-78
2022/05/14 11:05:33;;;;;;;4.47;3.05;;;;;;;38.83;22.91;97269.88;5028926;28;20029;-79
2022/05/14 11:08:12;;;;;;;14.23;3.47;;;;;;;40.92;21.41;97265.72;5029149;28;20108;-80
2022/05/14 11:10:37;;;;;;;3.95;3.47;;;;;;;39.61;22.87;97273.06;5015666;28;20076;-78
2022/05/14 11:13:15;;;;;;;10.32;4.03;;;;;;;39.44;23.10;97270.59;5016782;28;20060;-78
2022/05/14 11:15:42;;;;;;;4.15;3.08;;;;;;;40.00;22.39;97265.56;5033363;28;20099;-77
2022/05/14 11:18:10;;;;;;;6.15;3.30;;;;;;;39.94;22.40;97265.91;5016359;28;20128;-78
2022/05/14 11:20:37;;;;;;;7.85;2.80;;;;;;;37.70;23.18;97249.59;5032891;28;20091;-78
2022/05/14 11:23:13;;;;;;;14.63;2.45;;;;;;;37.25;23.76;97247.44;5033143;28;20025;-78
2022/05/14 11:25:39;;;;;;;7.18;2.80;;;;;;;38.17;23.51;97257.81;5032788;28;20034;-78
2022/05/14 11:28:04;;;;;;;5.50;3.08;;;;;;;38.29;24.02;97260.34;5032991;28;20028;-78
2022/05/14 11:30:43;;;;;;;8.68;2.80;;;;;;;38.69;22.66;97245.53;5032774;28;20049;-78
2022/05/14 11:33:31;;;;;;;4.40;2.72;;;;;;;36.84;24.28;97246.34;5032638;28;20040;-79
2022/05/14 11:36:03;;;;;;;4.65;2.97;;;;;;;35.82;25.82;97249.31;5032802;28;20026;-78
2022/05/14 11:38:30;;;;;;;8.02;2.70;;;;;;;36.68;24.62;97246.50;5016106;28;20026;-78
2022/05/14 11:41:26;;;;;;;4.68;2.50;;;;;;;37.69;23.77;97241.47;5108385;27;20391;-77
2022/05/14 11:43:53;;;;;;;5.05;2.70;;;;;;;37.95;23.56;97238.50;5084408;28;20097;-78
2022/05/14 11:46:28;;;;;;;26.38;4.65;;;;;;;39.02;22.08;97234.59;5088259;28;20442;-78
2022/05/14 11:49:01;;;;;;;9.55;2.88;;;;;;;39.23;21.74;97228.94;5101112;28;20073;-78